Terminal Aerodrome Forecast
Issued by NWS Paducah, KY

Home | Current Version | Previous Version | Text Only | Print | Product List | Glossary On
Versions: 1 2 3 4 5 6 7 8 9 10 11 12 13 14 15 16 17 18 19 20 21 22 23
776
FTUS43 KPAH 251445 AAA
TAFPAH
TAF AMD
KPAH 251445Z 2515/2612 21005KT P6SM SCT025 BKN250
      TEMPO 2515/2518 BKN025
     FM251800 22005KT P6SM VCTS BKN040CB
     FM252300 00000KT P6SM FEW070 BKN250=

USA.gov is the U.S. government's official web portal to all federal, state and local government web resources and services.